Time;durP1;ratioP1;P1;durP2;ratioP2;P2;SDS_P1;SDS_P2;PMS_P1;PMS_P2;Temp;Humidity;BMP_temperature;BMP_pressure;BME280_temperature;BME280_humidity;BME280_pressure;Samples;Min_cycle;Max_cycle;Signal;HPM_P1;HPM_P2
2024/01/03 00:00:48;;;;;;;28.17;6.03;;;13.70;99.90;;;;;;5029655;28;20433;-73
2024/01/03 00:03:16;;;;;;;31.48;6.65;;;13.70;99.90;;;;;;5029316;28;20092;-73
2024/01/03 00:05:42;;;;;;;28.95;5.78;;;13.70;99.90;;;;;;5029066;28;20033;-74
2024/01/03 00:08:29;;;;;;;29.67;5.93;;;13.70;99.90;;;;;;5029412;28;20045;-74
2024/01/03 00:10:56;;;;;;;29.42;5.97;;;13.60;99.90;;;;;;5032216;28;20120;-74
2024/01/03 00:13:37;;;;;;;22.30;5.40;;;13.70;99.90;;;;;;5032778;28;20056;-74
2024/01/03 00:16:17;;;;;;;24.15;5.13;;;13.70;99.90;;;;;;5032741;28;20108;-74
2024/01/03 00:18:56;;;;;;;29.13;5.75;;;13.60;99.90;;;;;;5032686;28;20025;-73
2024/01/03 00:21:25;;;;;;;26.20;5.88;;;13.70;99.90;;;;;;5032313;28;20025;-73
2024/01/03 00:23:55;;;;;;;26.88;5.60;;;13.60;99.90;;;;;;5033128;28;20112;-74
2024/01/03 00:26:26;;;;;;;32.58;6.05;;;13.60;99.90;;;;;;5032372;28;20052;-73
2024/01/03 00:28:51;;;;;;;26.60;5.85;;;13.50;99.90;;;;;;5037772;28;20045;-74
2024/01/03 00:31:41;;;;;;;27.60;5.80;;;13.50;99.90;;;;;;5095214;28;20031;-74
2024/01/03 00:34:21;;;;;;;31.88;6.72;;;13.50;99.90;;;;;;5094896;28;20107;-74
2024/01/03 00:36:56;;;;;;;31.20;6.43;;;13.50;99.90;;;;;;5095119;28;20103;-74
2024/01/03 00:39:26;;;;;;;27.92;6.00;;;13.50;99.90;;;;;;5094774;28;20452;-73
2024/01/03 00:41:52;;;;;;;31.92;5.47;;;13.40;99.90;;;;;;5094409;28;20478;-73
2024/01/03 00:44:18;;;;;;;28.25;5.70;;;13.60;99.90;;;;;;5094549;28;20028;-74
2024/01/03 00:46:44;;;;;;;24.55;5.75;;;13.90;99.90;;;;;;5094258;28;20043;-73
2024/01/03 00:49:11;;;;;;;22.60;5.40;;;14.00;99.90;;;;;;5094608;28;20032;-74
2024/01/03 00:51:37;;;;;;;30.80;6.07;;;14.20;99.90;;;;;;5094539;28;20028;-73
2024/01/03 00:54:03;;;;;;;24.70;4.90;;;14.30;99.90;;;;;;5094436;28;20035;-73
2024/01/03 00:56:29;;;;;;;29.00;6.10;;;14.50;99.90;;;;;;5094493;28;20016;-73
2024/01/03 00:58:54;;;;;;;32.53;6.20;;;14.40;99.90;;;;;;5094322;28;20036;-73
2024/01/03 01:01:20;;;;;;;22.60;6.00;;;14.70;99.90;;;;;;5094739;28;20389;-73
2024/01/03 01:03:46;;;;;;;29.55;6.18;;;14.50;99.90;;;;;;5094006;28;20030;-74
2024/01/03 01:06:12;;;;;;;26.73;5.68;;;14.50;99.90;;;;;;5094171;28;20027;-74
2024/01/03 01:08:38;;;;;;;26.30;5.55;;;14.30;99.90;;;;;;5094108;28;20502;-74
2024/01/03 01:11:03;;;;;;;22.77;5.40;;;14.10;99.90;;;;;;5094162;28;20082;-74
2024/01/03 01:13:29;;;;;;;28.75;5.50;;;14.00;99.90;;;;;;5094217;28;20024;-74
2024/01/03 01:15:55;;;;;;;25.35;5.68;;;13.90;99.90;;;;;;5092812;28;20103;-74
2024/01/03 01:18:20;;;;;;;26.05;5.63;;;13.90;99.90;;;;;;5093734;28;20154;-74
2024/01/03 01:20:46;;;;;;;28.02;6.00;;;13.80;99.90;;;;;;5093369;28;20024;-74
2024/01/03 01:23:11;;;;;;;23.85;5.40;;;13.90;99.90;;;;;;5093775;28;20102;-74
2024/01/03 01:25:37;;;;;;;22.63;5.60;;;13.90;99.90;;;;;;5093866;28;20027;-74
2024/01/03 01:28:03;;;;;;;20.60;5.03;;;13.80;99.90;;;;;;5094088;28;20040;-74
2024/01/03 01:30:29;;;;;;;28.20;5.53;;;13.80;99.90;;;;;;5093964;28;20021;-74
2024/01/03 01:32:54;;;;;;;27.65;6.60;;;13.80;99.90;;;;;;5093418;28;20070;-73
2024/01/03 01:35:20;;;;;;;25.95;5.47;;;13.80;99.90;;;;;;5094078;28;20031;-75
2024/01/03 01:37:45;;;;;;;23.30;6.13;;;13.80;99.90;;;;;;5093655;28;20471;-74
2024/01/03 01:40:12;;;;;;;30.13;6.32;;;13.80;99.90;;;;;;5093345;28;20095;-74
2024/01/03 01:42:43;;;;;;;27.88;6.35;;;13.80;99.90;;;;;;5093408;28;20406;-74
2024/01/03 01:45:09;;;;;;;29.23;6.60;;;13.80;99.90;;;;;;5093685;28;20506;-74
2024/01/03 01:47:37;;;;;;;24.88;5.93;;;13.80;99.90;;;;;;5093014;28;20043;-74
2024/01/03 01:50:03;;;;;;;24.23;5.65;;;13.80;99.90;;;;;;5093504;28;20077;-74
2024/01/03 01:52:29;;;;;;;21.73;4.90;;;13.80;99.90;;;;;;5093380;28;20020;-74
2024/01/03 01:54:54;;;;;;;17.58;4.40;;;13.70;99.90;;;;;;5093614;28;20032;-74
2024/01/03 01:57:20;;;;;;;20.85;4.70;;;13.70;99.90;;;;;;5093171;28;20081;-74
2024/01/03 01:59:47;;;;;;;23.70;5.38;;;13.70;99.90;;;;;;5093369;28;20031;-74
2024/01/03 02:02:13;;;;;;;21.05;4.80;;;13.70;99.90;;;;;;5093117;28;20432;-74
2024/01/03 02:04:40;;;;;;;19.60;4.28;;;13.70;99.90;;;;;;5093172;28;20024;-74
2024/01/03 02:07:07;;;;;;;18.25;4.28;;;13.70;99.90;;;;;;5093031;28;20024;-74
2024/01/03 02:09:32;;;;;;;26.70;5.70;;;13.70;99.90;;;;;;5092046;28;20043;-74
2024/01/03 02:11:58;;;;;;;17.20;4.60;;;13.60;99.90;;;;;;5092803;28;20027;-74
2024/01/03 02:14:24;;;;;;;17.58;4.65;;;13.60;99.90;;;;;;5093478;28;20035;-74
2024/01/03 02:16:49;;;;;;;22.85;5.15;;;13.60;99.90;;;;;;5092508;28;20028;-74
2024/01/03 02:19:15;;;;;;;21.88;4.88;;;13.60;99.90;;;;;;5092840;28;20512;-74
2024/01/03 02:21:40;;;;;;;20.00;4.50;;;13.60;99.90;;;;;;5093145;28;20108;-74
2024/01/03 02:24:06;;;;;;;20.55;4.68;;;13.60;99.90;;;;;;5092792;28;20028;-74
2024/01/03 02:26:32;;;;;;;20.02;5.05;;;13.80;99.90;;;;;;5092749;28;20386;-74
2024/01/03 02:28:57;;;;;;;24.58;5.43;;;14.10;99.90;;;;;;5092687;28;20598;-74
2024/01/03 02:31:23;;;;;;;23.52;5.32;;;14.30;99.90;;;;;;5091018;28;20024;-74
2024/01/03 02:33:49;;;;;;;20.67;5.20;;;14.40;99.90;;;;;;5091667;28;20027;-73
2024/01/03 02:36:14;;;;;;;30.60;6.93;;;14.40;99.90;;;;;;5092524;28;20574;-74
2024/01/03 02:38:46;;;;;;;25.25;6.13;;;14.50;99.90;;;;;;5092980;28;20044;-74
2024/01/03 02:41:12;;;;;;;29.27;7.32;;;14.60;99.90;;;;;;5091889;28;20020;-73
2024/01/03 02:43:38;;;;;;;26.60;6.45;;;14.60;99.90;;;;;;5092409;28;20033;-74
2024/01/03 02:46:03;;;;;;;32.92;7.18;;;14.60;99.90;;;;;;5092371;28;20048;-74
2024/01/03 02:48:29;;;;;;;28.80;6.80;;;14.40;99.90;;;;;;5092263;28;20509;-74
2024/01/03 02:50:55;;;;;;;33.03;7.40;;;14.30;99.90;;;;;;5092404;28;20039;-75
2024/01/03 02:53:20;;;;;;;31.08;7.32;;;14.10;99.90;;;;;;5092217;28;20110;-74
2024/01/03 02:55:46;;;;;;;29.50;7.45;;;14.00;99.90;;;;;;5092352;28;20394;-74
2024/01/03 02:58:11;;;;;;;27.33;7.47;;;13.90;99.90;;;;;;5092148;28;20406;-74
2024/01/03 03:00:39;;;;;;;26.52;6.82;;;13.70;99.90;;;;;;5092393;28;20024;-74
2024/01/03 03:03:05;;;;;;;31.92;7.22;;;13.70;99.90;;;;;;5092259;28;20016;-74
2024/01/03 03:05:30;;;;;;;25.17;5.80;;;13.70;99.90;;;;;;5092246;28;20020;-74
2024/01/03 03:07:56;;;;;;;28.25;6.43;;;13.70;99.90;;;;;;5092083;28;20039;-74
2024/01/03 03:10:22;;;;;;;34.42;6.00;;;13.60;99.90;;;;;;5092062;28;20496;-74
2024/01/03 03:12:47;;;;;;;31.92;6.00;;;13.60;99.90;;;;;;5092012;28;20105;-74
2024/01/03 03:15:13;;;;;;;27.05;5.75;;;13.50;99.90;;;;;;5092318;28;20402;-74
2024/01/03 03:17:40;;;;;;;26.52;6.03;;;13.50;99.90;;;;;;5092111;28;20024;-74
2024/01/03 03:20:06;;;;;;;27.08;5.80;;;13.50;99.90;;;;;;5091949;28;20028;-74
2024/01/03 03:22:32;;;;;;;27.48;5.80;;;13.40;99.90;;;;;;5092017;28;20047;-75
2024/01/03 03:24:58;;;;;;;24.83;6.30;;;13.40;99.90;;;;;;5092106;28;20020;-74
2024/01/03 03:27:24;;;;;;;31.92;6.40;;;13.40;99.90;;;;;;5091828;28;20502;-74
2024/01/03 03:29:50;;;;;;;21.98;5.55;;;13.40;99.90;;;;;;5092079;28;20101;-74
2024/01/03 03:32:16;;;;;;;30.58;6.28;;;13.40;99.90;;;;;;5091798;28;20482;-74
2024/01/03 03:34:42;;;;;;;24.83;6.03;;;13.40;99.90;;;;;;5091996;28;20495;-74
2024/01/03 03:37:08;;;;;;;26.55;5.47;;;13.40;99.90;;;;;;5092028;28;20008;-74
2024/01/03 03:39:33;;;;;;;24.48;6.68;;;13.40;99.90;;;;;;5092110;28;20052;-74
2024/01/03 03:42:00;;;;;;;27.13;6.57;;;13.40;99.90;;;;;;5091623;28;20066;-75
2024/01/03 03:44:26;;;;;;;25.90;5.88;;;13.40;99.90;;;;;;5092346;28;20028;-74
2024/01/03 03:46:51;;;;;;;26.70;6.25;;;13.40;99.90;;;;;;5096472;28;20059;-75
2024/01/03 03:49:17;;;;;;;24.80;6.35;;;13.40;99.90;;;;;;5094465;28;20064;-75
2024/01/03 03:51:43;;;;;;;20.85;5.15;;;13.40;99.90;;;;;;5095754;28;20023;-74
2024/01/03 03:54:08;;;;;;;30.23;6.43;;;13.40;99.90;;;;;;5095577;28;20085;-74
2024/01/03 03:56:34;;;;;;;30.25;6.82;;;13.30;99.90;;;;;;5096020;28;20066;-74
2024/01/03 03:59:00;;;;;;;24.95;5.85;;;13.30;99.90;;;;;;5095300;28;20031;-75
2024/01/03 04:01:26;;;;;;;25.40;6.13;;;13.40;99.90;;;;;;5095559;28;20025;-75
2024/01/03 04:03:52;;;;;;;29.80;6.78;;;13.30;99.90;;;;;;5095427;28;20115;-75
2024/01/03 04:06:17;;;;;;;26.27;6.03;;;13.40;99.90;;;;;;5095543;28;20020;-74
2024/01/03 04:08:44;;;;;;;27.10;5.57;;;13.70;99.90;;;;;;5095300;28;20028;-74
2024/01/03 04:11:10;;;;;;;25.10;6.05;;;14.00;99.90;;;;;;5095550;28;20381;-74
2024/01/03 04:13:38;;;;;;;23.13;5.78;;;14.20;99.90;;;;;;5095256;28;20024;-74
2024/01/03 04:16:07;;;;;;;22.60;4.88;;;14.40;99.90;;;;;;5095264;28;20153;-74
2024/01/03 04:18:34;;;;;;;26.48;6.35;;;14.40;99.90;;;;;;5095368;28;20099;-74
2024/01/03 04:21:01;;;;;;;21.08;5.03;;;14.60;99.90;;;;;;5095487;28;20024;-74
2024/01/03 04:23:27;;;;;;;23.13;5.50;;;14.50;99.90;;;;;;5095012;28;20028;-74
2024/01/03 04:25:52;;;;;;;22.75;5.22;;;14.60;99.90;;;;;;5094843;28;20433;-74
2024/01/03 04:28:18;;;;;;;23.38;5.90;;;14.50;99.90;;;;;;5094871;28;20040;-74
2024/01/03 04:30:44;;;;;;;27.35;6.18;;;14.40;99.90;;;;;;5095434;28;20016;-74
2024/01/03 04:33:09;;;;;;;26.23;6.18;;;14.10;99.90;;;;;;5094953;28;20397;-75
2024/01/03 04:35:35;;;;;;;22.10;4.97;;;14.10;99.90;;;;;;5094791;28;20024;-75
2024/01/03 04:38:02;;;;;;;28.40;6.30;;;13.90;99.90;;;;;;5094794;28;20043;-74
2024/01/03 04:40:30;;;;;;;27.30;6.07;;;13.80;99.90;;;;;;5094333;28;20023;-75
2024/01/03 04:42:55;;;;;;;28.45;5.85;;;13.70;99.90;;;;;;5094646;28;20046;-75
2024/01/03 04:45:21;;;;;;;26.13;6.03;;;13.70;99.90;;;;;;5094444;28;20040;-75
2024/01/03 04:47:47;;;;;;;34.75;6.55;;;13.70;99.90;;;;;;5095015;28;20466;-75
2024/01/03 04:50:12;;;;;;;24.83;5.97;;;13.60;99.90;;;;;;5094629;28;20028;-74
2024/01/03 04:52:38;;;;;;;25.48;5.97;;;13.60;99.90;;;;;;5094593;28;20073;-75
2024/01/03 04:55:04;;;;;;;25.13;5.78;;;13.60;99.90;;;;;;5094103;28;20107;-75
2024/01/03 04:57:34;;;;;;;31.20;6.28;;;13.60;99.90;;;;;;5093342;28;20032;-74
2024/01/03 04:59:59;;;;;;;31.10;6.95;;;13.60;99.90;;;;;;5094377;28;20500;-75
2024/01/03 05:02:25;;;;;;;28.88;6.25;;;13.50;99.90;;;;;;5094512;28;20046;-75
2024/01/03 05:04:51;;;;;;;23.75;5.88;;;13.50;99.90;;;;;;5094356;28;20032;-75
2024/01/03 05:07:17;;;;;;;27.35;6.78;;;13.50;99.90;;;;;;5094682;28;20378;-75
2024/01/03 05:09:43;;;;;;;32.35;6.55;;;13.50;99.90;;;;;;5094102;28;20016;-75
2024/01/03 05:12:09;;;;;;;28.40;6.20;;;13.50;99.90;;;;;;5094243;28;20036;-74
2024/01/03 05:14:34;;;;;;;23.73;6.50;;;13.50;99.90;;;;;;5094200;28;20024;-75
2024/01/03 05:17:00;;;;;;;29.67;6.60;;;13.50;99.90;;;;;;5092841;28;20065;-75
2024/01/03 05:19:26;;;;;;;32.63;6.53;;;13.50;99.90;;;;;;5093921;28;20099;-75
2024/01/03 05:21:52;;;;;;;30.30;7.25;;;13.50;99.90;;;;;;5094077;28;20470;-75
2024/01/03 05:24:19;;;;;;;27.90;6.40;;;13.40;99.90;;;;;;5093657;28;20500;-75
2024/01/03 05:26:45;;;;;;;31.88;7.20;;;13.50;99.90;;;;;;5093915;28;20493;-75
2024/01/03 05:29:11;;;;;;;31.20;6.65;;;13.50;99.90;;;;;;5093925;28;20032;-75
2024/01/03 05:31:36;;;;;;;31.20;6.35;;;13.40;99.90;;;;;;5093753;28;20515;-75
2024/01/03 05:34:02;;;;;;;32.58;6.60;;;13.40;99.90;;;;;;5093633;28;20028;-75
2024/01/03 05:36:27;;;;;;;32.78;7.70;;;13.40;99.90;;;;;;5093788;28;20035;-75
2024/01/03 05:38:53;;;;;;;36.00;7.25;;;13.40;99.90;;;;;;5092220;28;20028;-75
2024/01/03 05:41:19;;;;;;;29.55;6.60;;;13.40;99.90;;;;;;5093366;28;20641;-75
2024/01/03 05:43:45;;;;;;;28.67;6.57;;;13.40;99.90;;;;;;5093618;28;20024;-75
2024/01/03 05:46:10;;;;;;;31.40;7.53;;;13.40;99.90;;;;;;5093749;28;20110;-75
2024/01/03 05:48:36;;;;;;;35.20;7.07;;;13.50;99.90;;;;;;5092013;28;20032;-74
2024/01/03 05:51:02;;;;;;;36.08;7.57;;;13.70;99.90;;;;;;5093460;28;20020;-74
2024/01/03 05:53:28;;;;;;;33.35;8.20;;;14.00;99.90;;;;;;5093368;28;20050;-74
2024/01/03 05:55:54;;;;;;;34.78;7.57;;;14.10;99.90;;;;;;5093397;28;20107;-74
2024/01/03 05:58:19;;;;;;;32.80;7.15;;;14.20;99.90;;;;;;5093163;28;20028;-74
2024/01/03 06:00:45;;;;;;;34.30;7.38;;;14.40;99.90;;;;;;5093143;28;20028;-75
2024/01/03 06:03:11;;;;;;;34.47;7.85;;;14.40;99.90;;;;;;5093047;28;20039;-74
2024/01/03 06:05:36;;;;;;;34.70;7.70;;;14.50;99.90;;;;;;5093325;28;20028;-74
2024/01/03 06:08:02;;;;;;;28.85;6.45;;;14.50;99.90;;;;;;5092453;28;20032;-74
2024/01/03 06:10:28;;;;;;;29.38;7.10;;;14.40;99.90;;;;;;5093103;28;20048;-75
2024/01/03 06:12:53;;;;;;;28.17;7.60;;;14.20;99.90;;;;;;5093337;28;20108;-75
2024/01/03 06:15:19;;;;;;;28.85;7.22;;;14.10;99.90;;;;;;5092990;28;20024;-75
2024/01/03 06:17:45;;;;;;;33.72;7.45;;;13.90;99.90;;;;;;5092956;28;20030;-75
2024/01/03 06:20:10;;;;;;;31.83;6.88;;;13.80;99.90;;;;;;5092884;28;20031;-74
2024/01/03 06:22:36;;;;;;;34.83;7.38;;;13.70;99.90;;;;;;5092766;28;20020;-74
2024/01/03 06:25:01;;;;;;;35.42;7.50;;;13.60;99.90;;;;;;5092743;28;20032;-75
2024/01/03 06:27:27;;;;;;;32.53;7.22;;;13.60;99.90;;;;;;5092737;28;20035;-75
2024/01/03 06:29:53;;;;;;;25.02;6.18;;;13.50;99.90;;;;;;5093134;28;20032;-75
2024/01/03 06:32:18;;;;;;;30.48;6.95;;;13.50;99.90;;;;;;5092564;28;20028;-75
2024/01/03 06:34:44;;;;;;;32.40;6.80;;;13.40;99.90;;;;;;5092653;28;20032;-75
2024/01/03 06:37:09;;;;;;;42.08;8.18;;;13.30;99.90;;;;;;5092357;28;20393;-75
2024/01/03 06:39:35;;;;;;;34.80;7.50;;;13.30;99.90;;;;;;5092963;28;20039;-75
2024/01/03 06:42:01;;;;;;;29.92;7.97;;;13.30;99.90;;;;;;5092337;28;20020;-75
2024/01/03 06:44:27;;;;;;;28.33;7.68;;;13.30;99.90;;;;;;5092302;28;20115;-75
2024/01/03 06:46:52;;;;;;;33.47;7.85;;;13.30;99.90;;;;;;5092114;28;20036;-75
2024/01/03 06:49:18;;;;;;;35.35;8.30;;;13.30;99.90;;;;;;5092807;28;20036;-75
2024/01/03 06:51:44;;;;;;;32.88;7.22;;;13.30;99.90;;;;;;5092159;28;20028;-75
2024/01/03 06:54:10;;;;;;;33.75;7.60;;;13.30;99.90;;;;;;5092380;28;20520;-75
2024/01/03 06:56:35;;;;;;;34.70;7.55;;;13.30;99.90;;;;;;5092258;28;20024;-75
2024/01/03 06:59:01;;;;;;;30.65;7.45;;;13.30;99.90;;;;;;5092523;28;20058;-74
2024/01/03 07:01:27;;;;;;;29.45;7.22;;;13.30;99.90;;;;;;5091895;28;20043;-74
2024/01/03 07:03:52;;;;;;;32.08;8.27;;;13.30;99.90;;;;;;5092627;28;20024;-74
2024/01/03 07:06:18;;;;;;;33.72;7.80;;;13.30;99.90;;;;;;5091894;28;20039;-74
2024/01/03 07:08:45;;;;;;;32.90;7.22;;;13.30;99.90;;;;;;5091936;28;20490;-74
2024/01/03 07:11:11;;;;;;;30.63;7.22;;;13.30;99.90;;;;;;5092116;28;20020;-74
2024/01/03 07:13:37;;;;;;;31.10;6.90;;;13.30;99.90;;;;;;5092146;28;20137;-74
2024/01/03 07:16:03;;;;;;;29.77;7.15;;;13.30;99.90;;;;;;5092453;28;20069;-74
2024/01/03 07:18:29;;;;;;;36.17;7.15;;;13.30;99.90;;;;;;5092178;28;20028;-74
2024/01/03 07:20:54;;;;;;;27.05;6.97;;;13.30;99.90;;;;;;5095070;28;20035;-74
2024/01/03 07:23:20;;;;;;;28.58;6.93;;;13.40;99.90;;;;;;5096359;28;20024;-74
2024/01/03 07:25:45;;;;;;;29.20;7.38;;;13.40;99.90;;;;;;5096679;28;20470;-74
2024/01/03 07:28:11;;;;;;;31.90;8.10;;;13.40;99.90;;;;;;5096073;28;20120;-74
2024/01/03 07:30:37;;;;;;;34.05;8.02;;;13.50;99.90;;;;;;5096028;28;20024;-74
2024/01/03 07:33:04;;;;;;;33.90;7.10;;;13.70;99.90;;;;;;5095987;28;20477;-74
2024/01/03 07:35:30;;;;;;;27.63;6.93;;;13.90;99.90;;;;;;5095841;28;20087;-74
2024/01/03 07:37:55;;;;;;;33.97;7.82;;;14.30;99.90;;;;;;5096188;28;20028;-73
2024/01/03 07:40:21;;;;;;;27.52;7.13;;;14.40;99.90;;;;;;5095891;28;20115;-73
2024/01/03 07:42:46;;;;;;;36.72;7.82;;;14.50;99.90;;;;;;5095947;28;20043;-74
2024/01/03 07:45:12;;;;;;;32.85;8.02;;;14.60;99.90;;;;;;5096053;28;20032;-74
2024/01/03 07:47:38;;;;;;;30.70;6.68;;;14.60;99.90;;;;;;5095787;28;20160;-74
2024/01/03 07:50:04;;;;;;;31.13;7.80;;;14.60;99.90;;;;;;5095636;28;20384;-74
2024/01/03 07:52:30;;;;;;;27.48;6.80;;;14.50;99.90;;;;;;5096011;28;20050;-74
2024/01/03 07:54:55;;;;;;;33.47;8.38;;;14.30;99.90;;;;;;5095709;28;20028;-74
2024/01/03 07:57:21;;;;;;;31.35;8.45;;;14.20;99.90;;;;;;5095613;28;20028;-74
2024/01/03 07:59:47;;;;;;;37.33;8.55;;;14.10;99.90;;;;;;5095597;28;20443;-74
2024/01/03 08:02:13;;;;;;;33.63;7.97;;;13.90;99.90;;;;;;5095480;28;20039;-74
2024/01/03 08:04:40;;;;;;;39.20;8.40;;;13.90;99.90;;;;;;5095531;28;20039;-74
2024/01/03 08:07:06;;;;;;;32.95;7.68;;;13.80;99.90;;;;;;5095346;28;20027;-74
2024/01/03 08:09:33;;;;;;;34.72;8.25;;;13.80;99.90;;;;;;5095417;28;20024;-74
2024/01/03 08:11:59;;;;;;;35.08;7.95;;;13.80;99.90;;;;;;5095259;28;20055;-74
2024/01/03 08:14:24;;;;;;;30.67;7.88;;;13.70;99.90;;;;;;5095643;28;20081;-74
2024/01/03 08:16:50;;;;;;;31.17;7.57;;;13.70;99.90;;;;;;5095322;28;20035;-74
2024/01/03 08:19:16;;;;;;;37.72;8.15;;;13.70;99.90;;;;;;5094943;28;20024;-74
2024/01/03 08:21:42;;;;;;;34.00;8.02;;;13.70;99.90;;;;;;5095158;28;20076;-74
2024/01/03 08:24:07;;;;;;;34.63;8.32;;;13.80;99.90;;;;;;5095501;28;20392;-74
2024/01/03 08:26:33;;;;;;;35.05;8.27;;;13.70;99.90;;;;;;5094958;28;20492;-74
2024/01/03 08:28:59;;;;;;;32.08;7.82;;;13.70;99.90;;;;;;5095083;28;20036;-74
2024/01/03 08:31:24;;;;;;;35.53;8.25;;;13.70;99.90;;;;;;5094522;28;20047;-74
2024/01/03 08:33:50;;;;;;;34.70;7.40;;;13.70;99.90;;;;;;5094462;28;20032;-74
2024/01/03 08:36:16;;;;;;;29.10;8.18;;;13.70;99.90;;;;;;5094809;28;20050;-74
2024/01/03 08:38:41;;;;;;;34.72;7.82;;;13.70;99.90;;;;;;5094846;28;20057;-73
2024/01/03 08:41:14;;;;;;;32.03;7.53;;;13.70;99.90;;;;;;5094724;28;20030;-73
2024/01/03 08:43:40;;;;;;;34.10;7.50;;;13.70;99.90;;;;;;5095066;28;20024;-73
2024/01/03 08:46:06;;;;;;;28.35;7.30;;;13.70;99.90;;;;;;5094562;28;20457;-73
2024/01/03 08:48:31;;;;;;;34.63;8.30;;;13.70;99.90;;;;;;5094401;28;20451;-73
2024/01/03 08:50:58;;;;;;;35.13;8.32;;;13.70;99.90;;;;;;5094689;28;20052;-73
2024/01/03 08:53:24;;;;;;;33.40;7.80;;;13.80;99.90;;;;;;5094902;28;20074;-74
2024/01/03 08:55:50;;;;;;;30.90;7.35;;;13.80;99.90;;;;;;5094644;28;20540;-73
2024/01/03 08:58:15;;;;;;;36.95;8.25;;;13.80;99.90;;;;;;5094333;28;20107;-73
2024/01/03 09:00:44;;;;;;;35.70;8.32;;;13.80;99.90;;;;;;5094396;28;20103;-74
2024/01/03 09:03:10;;;;;;;32.55;7.68;;;13.80;99.90;;;;;;5094240;28;20032;-74
2024/01/03 09:05:35;;;;;;;31.38;6.65;;;13.80;99.90;;;;;;5094507;28;20077;-74
2024/01/03 09:08:01;;;;;;;28.17;7.40;;;13.80;99.90;;;;;;5094193;28;20447;-73
2024/01/03 09:10:27;;;;;;;33.42;7.15;;;13.80;99.90;;;;;;5094458;28;20028;-73
2024/01/03 09:12:52;;;;;;;25.48;6.20;;;13.90;99.90;;;;;;5094221;28;20016;-73
2024/01/03 09:15:18;;;;;;;30.85;6.75;;;14.10;99.90;;;;;;5094096;28;20035;-73
2024/01/03 09:17:44;;;;;;;27.08;7.05;;;14.30;99.90;;;;;;5093863;28;20093;-73
2024/01/03 09:20:11;;;;;;;24.95;6.10;;;14.60;99.90;;;;;;5092834;28;20032;-73
2024/01/03 09:22:37;;;;;;;27.05;6.15;;;14.70;99.90;;;;;;5093907;28;20400;-73
2024/01/03 09:25:03;;;;;;;23.48;6.88;;;14.80;99.90;;;;;;5094407;28;20464;-73
2024/01/03 09:27:28;;;;;;;31.17;6.95;;;14.80;99.90;;;;;;5093690;28;20064;-73
2024/01/03 09:29:54;;;;;;;24.80;7.30;;;14.80;99.90;;;;;;5093870;28;20073;-73
2024/01/03 09:32:20;;;;;;;27.77;7.60;;;14.90;99.90;;;;;;5093361;28;20025;-73
2024/01/03 09:34:46;;;;;;;28.55;6.65;;;15.00;99.90;;;;;;5094097;28;20031;-74
2024/01/03 09:37:12;;;;;;;32.63;8.20;;;14.90;99.90;;;;;;5093802;28;20016;-73
2024/01/03 09:39:37;;;;;;;24.80;6.55;;;14.70;99.90;;;;;;5093665;28;20500;-73
2024/01/03 09:42:03;;;;;;;34.90;7.35;;;14.50;99.90;;;;;;5092702;28;20393;-74
2024/01/03 09:44:29;;;;;;;32.50;7.38;;;14.40;99.90;;;;;;5092339;28;20397;-74
2024/01/03 09:46:56;;;;;;;30.13;7.45;;;14.30;99.90;;;;;;5093458;28;20048;-74
2024/01/03 09:49:22;;;;;;;36.95;7.72;;;14.30;99.90;;;;;;5093770;28;20089;-74
2024/01/03 09:51:50;;;;;;;27.73;7.45;;;14.30;99.90;;;;;;5093400;28;20035;-73
2024/01/03 09:54:15;;;;;;;30.88;7.28;;;14.20;99.90;;;;;;5093323;28;20103;-73
2024/01/03 09:56:41;;;;;;;30.23;8.18;;;14.20;99.90;;;;;;5093365;28;20456;-74
2024/01/03 09:59:08;;;;;;;30.30;7.38;;;14.20;99.90;;;;;;5093123;28;20097;-74
2024/01/03 10:01:34;;;;;;;28.67;7.13;;;14.10;99.90;;;;;;5093486;28;20027;-74
2024/01/03 10:04:00;;;;;;;30.58;7.63;;;14.10;99.90;;;;;;5093362;28;20474;-74
2024/01/03 10:06:26;;;;;;;30.13;6.63;;;14.10;99.90;;;;;;5093271;28;20099;-74
2024/01/03 10:09:02;;;;;;;30.00;6.80;;;14.10;99.90;;;;;;5093352;28;20028;-74
2024/01/03 10:11:29;;;;;;;33.85;7.60;;;14.10;99.90;;;;;;5093159;28;20082;-74
2024/01/03 10:13:56;;;;;;;29.10;7.00;;;14.10;99.90;;;;;;5092750;28;20031;-74
2024/01/03 10:16:28;;;;;;;28.45;7.05;;;14.10;99.90;;;;;;5093027;28;20398;-75
2024/01/03 10:19:11;;;;;;;28.33;6.72;;;14.10;99.90;;;;;;5092984;28;20028;-74
2024/01/03 10:21:55;;;;;;;31.88;7.72;;;14.10;99.90;;;;;;5092736;28;20024;-74
2024/01/03 10:24:25;;;;;;;30.25;7.15;;;14.10;99.90;;;;;;5093092;28;20480;-75
2024/01/03 10:26:51;;;;;;;33.40;7.32;;;14.10;99.90;;;;;;5092850;28;20028;-74
2024/01/03 10:29:20;;;;;;;34.55;7.55;;;14.10;99.90;;;;;;5092317;28;20085;-74
2024/01/03 10:31:47;;;;;;;28.95;7.38;;;14.10;99.90;;;;;;5092684;28;20053;-73
2024/01/03 10:34:17;;;;;;;31.52;7.20;;;14.10;99.90;;;;;;5092994;28;20036;-74
2024/01/03 10:36:46;;;;;;;31.13;7.43;;;14.20;99.90;;;;;;5093147;28;20021;-74
2024/01/03 10:39:15;;;;;;;30.13;7.30;;;14.20;99.90;;;;;;5092511;28;20486;-74
2024/01/03 10:41:45;;;;;;;33.47;8.05;;;14.20;99.90;;;;;;5092419;28;20382;-74
2024/01/03 10:44:13;;;;;;;30.83;8.38;;;14.20;99.90;;;;;;5090642;28;20028;-74
2024/01/03 10:46:41;;;;;;;28.77;8.05;;;14.20;99.90;;;;;;5092121;28;20059;-74
2024/01/03 10:49:07;;;;;;;34.63;7.43;;;14.30;99.90;;;;;;5092463;28;20048;-74
2024/01/03 10:51:42;;;;;;;30.60;7.63;;;14.30;99.90;;;;;;5092768;28;20474;-74
2024/01/03 10:54:12;;;;;;;31.42;7.68;;;14.30;99.90;;;;;;5091469;28;20031;-74
2024/01/03 10:56:38;;;;;;;27.15;7.50;;;14.50;99.90;;;;;;5092303;28;20043;-73
2024/01/03 10:59:05;;;;;;;26.08;7.38;;;14.80;99.90;;;;;;5092068;28;20020;-73
2024/01/03 11:01:55;;;;;;;32.53;7.70;;;15.10;99.90;;;;;;5092194;28;20029;-73
2024/01/03 11:04:37;;;;;;;30.00;7.60;;;15.10;99.90;;;;;;5092487;28;20223;-73
2024/01/03 11:07:50;;;;;;;27.90;7.35;;;15.30;99.90;;;;;;5092786;28;20030;-73
2024/01/03 11:10:54;;;;;;;28.02;7.10;;;15.30;99.90;;;;;;5049915;28;20080;-74
2024/01/03 11:13:32;;;;;;;33.17;7.10;;;15.50;99.90;;;;;;5049229;28;20025;-73
2024/01/03 11:15:59;;;;;;;32.78;7.25;;;15.60;99.90;;;;;;5049761;28;20032;-74
2024/01/03 11:18:40;;;;;;;27.52;6.65;;;15.60;99.90;;;;;;5049727;28;20029;-74
2024/01/03 11:21:23;;;;;;;34.60;7.35;;;15.40;99.90;;;;;;5049719;28;20040;-74
2024/01/03 11:23:49;;;;;;;35.17;8.20;;;15.20;99.90;;;;;;5049527;28;20057;-74
2024/01/03 11:26:14;;;;;;;30.77;7.40;;;15.10;99.90;;;;;;5049610;28;20126;-74
2024/01/03 11:28:48;;;;;;;28.42;7.32;;;15.00;99.90;;;;;;5049591;28;20044;-74
2024/01/03 11:31:14;;;;;;;;;;;14.90;99.90;;;;;;5050076;28;20041;-74
2024/01/03 11:33:39;;;;;;;26.15;6.90;;;14.90;99.90;;;;;;5049522;28;19909;-74
2024/01/03 11:36:08;;;;;;;27.08;6.97;;;14.80;99.90;;;;;;5049602;28;20060;-74
2024/01/03 11:38:41;;;;;;;31.25;7.80;;;14.80;99.90;;;;;;5049506;28;20063;-74
2024/01/03 11:41:08;;;;;;;29.70;7.55;;;14.80;99.90;;;;;;5049475;28;20040;-74
2024/01/03 11:43:34;;;;;;;27.35;6.63;;;14.80;99.90;;;;;;5049496;28;20040;-74
2024/01/03 11:46:07;;;;;;;26.83;6.53;;;14.70;99.90;;;;;;5053547;28;20087;-74
2024/01/03 11:48:33;;;;;;;28.05;6.38;;;14.70;99.90;;;;;;5072042;28;20401;-74
2024/01/03 11:50:58;;;;;;;27.92;6.88;;;14.70;99.90;;;;;;5071062;28;20108;-74
2024/01/03 11:53:24;;;;;;;25.88;6.72;;;14.70;99.90;;;;;;5072000;28;20111;-74
2024/01/03 11:55:51;;;;;;;30.73;7.32;;;14.70;99.90;;;;;;5071302;28;20027;-74
2024/01/03 11:58:16;;;;;;;25.45;5.90;;;14.80;99.90;;;;;;5071513;28;20477;-74
2024/01/03 12:00:42;;;;;;;25.10;5.95;;;14.70;99.90;;;;;;5070329;28;20107;-75
2024/01/03 12:03:08;;;;;;;25.23;5.80;;;14.70;99.90;;;;;;5071993;28;20055;-74
2024/01/03 12:05:44;;;;;;;19.95;4.93;;;14.80;99.90;;;;;;5072405;28;20103;-74
2024/01/03 12:08:10;;;;;;;23.38;5.50;;;14.80;99.90;;;;;;5075153;28;20463;-74
2024/01/03 12:10:36;;;;;;;23.50;5.38;;;14.80;99.90;;;;;;5074759;28;20399;-74
2024/01/03 12:13:02;;;;;;;22.65;6.18;;;14.80;99.90;;;;;;5074997;28;20052;-74
2024/01/03 12:15:28;;;;;;;19.58;5.22;;;14.80;99.90;;;;;;5075023;28;20055;-74
2024/01/03 12:18:07;;;;;;;22.05;4.88;;;14.80;99.90;;;;;;5075059;28;20021;-74
2024/01/03 12:20:33;;;;;;;20.88;4.63;;;14.80;99.90;;;;;;5075149;28;20051;-74
2024/01/03 12:23:09;;;;;;;20.23;5.28;;;14.80;99.90;;;;;;5074737;28;20498;-74
2024/01/03 12:25:35;;;;;;;22.63;4.80;;;14.80;99.90;;;;;;5074966;28;20064;-74
2024/01/03 12:28:01;;;;;;;21.08;5.03;;;14.80;99.90;;;;;;5074815;28;20508;-74
2024/01/03 12:30:26;;;;;;;23.17;5.13;;;14.90;99.90;;;;;;5074869;28;20565;-73
2024/01/03 12:33:06;;;;;;;22.13;5.20;;;14.90;99.90;;;;;;5074832;28;20391;-74
2024/01/03 12:35:32;;;;;;;25.45;5.72;;;15.10;99.90;;;;;;5074580;28;20414;-74
2024/01/03 12:37:58;;;;;;;21.08;5.65;;;15.40;99.90;;;;;;5074671;28;20032;-75